sensor_id;sensor_type;location;lat;lon;timestamp;P1;durP1;ratioP1;P2;durP2;ratioP2
4694;SDS011;2361;49.540;8.390;2023-12-14T00:01:41;7.93;;;5.97;;
4694;SDS011;2361;49.540;8.390;2023-12-14T00:04:03;9.38;;;6.65;;
4694;SDS011;2361;49.540;8.390;2023-12-14T00:06:26;7.53;;;5.72;;
4694;SDS011;2361;49.540;8.390;2023-12-14T00:08:48;9.55;;;6.53;;
4694;SDS011;2361;49.540;8.390;2023-12-14T00:11:11;7.88;;;5.97;;
4694;SDS011;2361;49.540;8.390;2023-12-14T00:13:33;9.48;;;6.70;;
4694;SDS011;2361;49.540;8.390;2023-12-14T00:15:55;11.00;;;6.93;;
4694;SDS011;2361;49.540;8.390;2023-12-14T00:18:17;10.35;;;6.43;;
4694;SDS011;2361;49.540;8.390;2023-12-14T00:20:39;9.27;;;6.20;;
4694;SDS011;2361;49.540;8.390;2023-12-14T00:23:01;10.63;;;6.93;;
4694;SDS011;2361;49.540;8.390;2023-12-14T00:25:23;9.13;;;6.60;;
4694;SDS011;2361;49.540;8.390;2023-12-14T00:27:45;10.27;;;6.13;;
4694;SDS011;2361;49.540;8.390;2023-12-14T00:30:07;8.88;;;6.45;;
4694;SDS011;2361;49.540;8.390;2023-12-14T00:32:29;9.50;;;6.67;;
4694;SDS011;2361;49.540;8.390;2023-12-14T00:34:53;8.10;;;6.38;;
4694;SDS011;2361;49.540;8.390;2023-12-14T00:37:15;10.48;;;6.70;;
4694;SDS011;2361;49.540;8.390;2023-12-14T00:39:37;10.38;;;6.60;;
4694;SDS011;2361;49.540;8.390;2023-12-14T00:41:59;8.55;;;6.80;;
4694;SDS011;2361;49.540;8.390;2023-12-14T00:44:21;13.13;;;6.60;;
4694;SDS011;2361;49.540;8.390;2023-12-14T00:46:43;9.32;;;7.10;;
4694;SDS011;2361;49.540;8.390;2023-12-14T00:49:05;10.10;;;6.75;;
4694;SDS011;2361;49.540;8.390;2023-12-14T00:51:27;9.98;;;6.72;;
4694;SDS011;2361;49.540;8.390;2023-12-14T00:53:49;13.67;;;7.77;;
4694;SDS011;2361;49.540;8.390;2023-12-14T00:56:11;8.43;;;6.28;;
4694;SDS011;2361;49.540;8.390;2023-12-14T00:58:33;9.98;;;6.95;;
4694;SDS011;2361;49.540;8.390;2023-12-14T01:00:55;10.20;;;7.10;;
4694;SDS011;2361;49.540;8.390;2023-12-14T01:03:17;11.88;;;7.45;;
4694;SDS011;2361;49.540;8.390;2023-12-14T01:05:39;11.43;;;8.10;;
4694;SDS011;2361;49.540;8.390;2023-12-14T01:08:01;11.50;;;7.22;;
4694;SDS011;2361;49.540;8.390;2023-12-14T01:10:23;10.65;;;7.55;;
4694;SDS011;2361;49.540;8.390;2023-12-14T01:12:45;10.82;;;7.32;;
4694;SDS011;2361;49.540;8.390;2023-12-14T01:15:07;12.40;;;8.10;;
4694;SDS011;2361;49.540;8.390;2023-12-14T01:17:29;11.35;;;7.70;;
4694;SDS011;2361;49.540;8.390;2023-12-14T01:19:51;15.77;;;8.77;;
4694;SDS011;2361;49.540;8.390;2023-12-14T01:22:13;12.25;;;7.82;;
4694;SDS011;2361;49.540;8.390;2023-12-14T01:24:37;11.30;;;7.72;;
4694;SDS011;2361;49.540;8.390;2023-12-14T01:26:59;10.77;;;7.65;;
4694;SDS011;2361;49.540;8.390;2023-12-14T01:29:21;10.37;;;7.17;;
4694;SDS011;2361;49.540;8.390;2023-12-14T01:31:42;13.48;;;7.50;;
4694;SDS011;2361;49.540;8.390;2023-12-14T01:34:04;11.40;;;7.30;;
4694;SDS011;2361;49.540;8.390;2023-12-14T01:36:27;10.88;;;7.70;;
4694;SDS011;2361;49.540;8.390;2023-12-14T01:38:49;11.07;;;7.38;;
4694;SDS011;2361;49.540;8.390;2023-12-14T01:41:11;12.52;;;7.30;;
4694;SDS011;2361;49.540;8.390;2023-12-14T01:43:33;10.75;;;7.20;;
4694;SDS011;2361;49.540;8.390;2023-12-14T01:45:55;9.10;;;6.80;;
4694;SDS011;2361;49.540;8.390;2023-12-14T01:48:17;11.30;;;7.40;;
4694;SDS011;2361;49.540;8.390;2023-12-14T01:50:39;11.18;;;7.28;;
4694;SDS011;2361;49.540;8.390;2023-12-14T01:53:01;10.70;;;7.20;;
4694;SDS011;2361;49.540;8.390;2023-12-14T01:55:23;10.65;;;6.97;;
4694;SDS011;2361;49.540;8.390;2023-12-14T01:57:47;11.55;;;7.00;;
4694;SDS011;2361;49.540;8.390;2023-12-14T02:00:12;8.90;;;6.50;;
4694;SDS011;2361;49.540;8.390;2023-12-14T02:03:01;10.70;;;7.10;;
4694;SDS011;2361;49.540;8.390;2023-12-14T02:05:23;9.20;;;6.63;;
4694;SDS011;2361;49.540;8.390;2023-12-14T02:07:45;9.90;;;6.82;;
4694;SDS011;2361;49.540;8.390;2023-12-14T02:10:07;10.80;;;7.22;;
4694;SDS011;2361;49.540;8.390;2023-12-14T02:12:29;10.73;;;7.20;;
4694;SDS011;2361;49.540;8.390;2023-12-14T02:14:51;9.95;;;7.22;;
4694;SDS011;2361;49.540;8.390;2023-12-14T02:17:13;10.98;;;6.85;;
4694;SDS011;2361;49.540;8.390;2023-12-14T02:19:35;10.05;;;6.78;;
4694;SDS011;2361;49.540;8.390;2023-12-14T02:21:57;11.13;;;7.13;;
4694;SDS011;2361;49.540;8.390;2023-12-14T02:24:19;10.80;;;7.00;;
4694;SDS011;2361;49.540;8.390;2023-12-14T02:26:41;11.60;;;7.20;;
4694;SDS011;2361;49.540;8.390;2023-12-14T02:29:22;11.43;;;6.47;;
4694;SDS011;2361;49.540;8.390;2023-12-14T02:31:44;9.85;;;6.25;;
4694;SDS011;2361;49.540;8.390;2023-12-14T02:34:08;9.25;;;7.10;;
4694;SDS011;2361;49.540;8.390;2023-12-14T02:36:30;8.40;;;6.25;;
4694;SDS011;2361;49.540;8.390;2023-12-14T02:38:52;9.80;;;6.70;;
4694;SDS011;2361;49.540;8.390;2023-12-14T02:41:14;8.45;;;6.00;;
4694;SDS011;2361;49.540;8.390;2023-12-14T02:43:36;8.70;;;6.25;;
4694;SDS011;2361;49.540;8.390;2023-12-14T02:45:59;8.52;;;6.20;;
4694;SDS011;2361;49.540;8.390;2023-12-14T02:48:23;9.98;;;6.30;;
4694;SDS011;2361;49.540;8.390;2023-12-14T02:50:45;9.50;;;6.40;;
4694;SDS011;2361;49.540;8.390;2023-12-14T02:53:07;9.77;;;5.93;;
4694;SDS011;2361;49.540;8.390;2023-12-14T02:55:29;10.38;;;6.00;;
4694;SDS011;2361;49.540;8.390;2023-12-14T02:57:51;8.55;;;5.90;;
4694;SDS011;2361;49.540;8.390;2023-12-14T03:00:13;8.52;;;5.75;;
4694;SDS011;2361;49.540;8.390;2023-12-14T03:02:35;8.35;;;5.90;;
4694;SDS011;2361;49.540;8.390;2023-12-14T03:04:58;10.05;;;6.15;;
4694;SDS011;2361;49.540;8.390;2023-12-14T03:07:20;10.07;;;6.30;;
4694;SDS011;2361;49.540;8.390;2023-12-14T03:09:42;8.17;;;5.90;;
4694;SDS011;2361;49.540;8.390;2023-12-14T03:12:05;11.68;;;6.97;;
4694;SDS011;2361;49.540;8.390;2023-12-14T03:14:31;12.18;;;6.40;;
4694;SDS011;2361;49.540;8.390;2023-12-14T03:16:54;12.00;;;6.57;;
4694;SDS011;2361;49.540;8.390;2023-12-14T03:19:16;11.73;;;6.30;;
4694;SDS011;2361;49.540;8.390;2023-12-14T03:21:39;10.70;;;6.00;;
4694;SDS011;2361;49.540;8.390;2023-12-14T03:24:00;11.10;;;6.28;;
4694;SDS011;2361;49.540;8.390;2023-12-14T03:26:22;9.68;;;6.40;;
4694;SDS011;2361;49.540;8.390;2023-12-14T03:28:44;8.83;;;6.50;;
4694;SDS011;2361;49.540;8.390;2023-12-14T03:31:06;10.55;;;6.30;;
4694;SDS011;2361;49.540;8.390;2023-12-14T03:33:28;11.02;;;6.45;;
4694;SDS011;2361;49.540;8.390;2023-12-14T03:35:51;12.05;;;6.35;;
4694;SDS011;2361;49.540;8.390;2023-12-14T03:38:13;10.38;;;6.55;;
4694;SDS011;2361;49.540;8.390;2023-12-14T03:40:35;10.95;;;6.43;;
4694;SDS011;2361;49.540;8.390;2023-12-14T03:42:57;9.93;;;6.00;;
4694;SDS011;2361;49.540;8.390;2023-12-14T03:45:20;9.87;;;6.10;;
4694;SDS011;2361;49.540;8.390;2023-12-14T03:47:42;9.27;;;6.28;;
4694;SDS011;2361;49.540;8.390;2023-12-14T03:50:04;10.25;;;6.60;;
4694;SDS011;2361;49.540;8.390;2023-12-14T03:52:27;10.52;;;6.30;;
4694;SDS011;2361;49.540;8.390;2023-12-14T03:54:52;9.85;;;6.70;;
4694;SDS011;2361;49.540;8.390;2023-12-14T03:57:14;10.57;;;6.70;;
4694;SDS011;2361;49.540;8.390;2023-12-14T03:59:39;10.10;;;6.20;;
4694;SDS011;2361;49.540;8.390;2023-12-14T04:02:01;10.82;;;6.45;;
4694;SDS011;2361;49.540;8.390;2023-12-14T04:04:23;11.73;;;6.50;;
4694;SDS011;2361;49.540;8.390;2023-12-14T04:06:45;11.05;;;6.55;;
4694;SDS011;2361;49.540;8.390;2023-12-14T04:09:07;10.07;;;6.10;;
4694;SDS011;2361;49.540;8.390;2023-12-14T04:11:29;10.43;;;6.03;;
4694;SDS011;2361;49.540;8.390;2023-12-14T04:13:51;7.82;;;5.63;;
4694;SDS011;2361;49.540;8.390;2023-12-14T04:16:14;13.63;;;6.55;;
4694;SDS011;2361;49.540;8.390;2023-12-14T04:18:36;13.57;;;7.13;;
4694;SDS011;2361;49.540;8.390;2023-12-14T04:20:59;10.48;;;6.50;;
4694;SDS011;2361;49.540;8.390;2023-12-14T04:23:20;11.20;;;6.90;;
4694;SDS011;2361;49.540;8.390;2023-12-14T04:25:42;9.27;;;5.73;;
4694;SDS011;2361;49.540;8.390;2023-12-14T04:28:04;10.15;;;6.07;;
4694;SDS011;2361;49.540;8.390;2023-12-14T04:30:26;8.38;;;5.55;;
4694;SDS011;2361;49.540;8.390;2023-12-14T04:32:48;9.82;;;6.53;;
4694;SDS011;2361;49.540;8.390;2023-12-14T04:35:10;11.80;;;6.83;;
4694;SDS011;2361;49.540;8.390;2023-12-14T04:37:32;9.40;;;5.85;;
4694;SDS011;2361;49.540;8.390;2023-12-14T04:39:55;10.68;;;5.93;;
4694;SDS011;2361;49.540;8.390;2023-12-14T04:42:17;11.80;;;6.30;;
4694;SDS011;2361;49.540;8.390;2023-12-14T04:44:39;9.48;;;6.03;;
4694;SDS011;2361;49.540;8.390;2023-12-14T04:47:00;10.73;;;6.20;;
4694;SDS011;2361;49.540;8.390;2023-12-14T04:49:22;10.07;;;6.57;;
4694;SDS011;2361;49.540;8.390;2023-12-14T04:51:44;11.77;;;6.50;;
4694;SDS011;2361;49.540;8.390;2023-12-14T04:54:06;9.95;;;6.10;;
4694;SDS011;2361;49.540;8.390;2023-12-14T04:56:28;9.70;;;6.47;;
4694;SDS011;2361;49.540;8.390;2023-12-14T04:58:50;9.73;;;6.40;;
4694;SDS011;2361;49.540;8.390;2023-12-14T05:01:12;14.50;;;6.75;;
4694;SDS011;2361;49.540;8.390;2023-12-14T05:03:34;9.82;;;6.35;;
4694;SDS011;2361;49.540;8.390;2023-12-14T05:05:57;9.45;;;6.40;;
4694;SDS011;2361;49.540;8.390;2023-12-14T05:08:18;10.82;;;7.00;;
4694;SDS011;2361;49.540;8.390;2023-12-14T05:10:40;10.97;;;6.77;;
4694;SDS011;2361;49.540;8.390;2023-12-14T05:13:02;12.93;;;7.13;;
4694;SDS011;2361;49.540;8.390;2023-12-14T05:15:24;12.13;;;7.50;;
4694;SDS011;2361;49.540;8.390;2023-12-14T05:17:46;11.70;;;6.68;;
4694;SDS011;2361;49.540;8.390;2023-12-14T05:20:08;13.25;;;7.18;;
4694;SDS011;2361;49.540;8.390;2023-12-14T05:22:31;12.20;;;7.30;;
4694;SDS011;2361;49.540;8.390;2023-12-14T05:24:53;11.52;;;6.72;;
4694;SDS011;2361;49.540;8.390;2023-12-14T05:27:15;11.32;;;6.80;;
4694;SDS011;2361;49.540;8.390;2023-12-14T05:29:37;11.77;;;6.80;;
4694;SDS011;2361;49.540;8.390;2023-12-14T05:31:59;9.85;;;6.95;;
4694;SDS011;2361;49.540;8.390;2023-12-14T05:34:21;11.05;;;6.90;;
4694;SDS011;2361;49.540;8.390;2023-12-14T05:36:43;14.00;;;7.80;;
4694;SDS011;2361;49.540;8.390;2023-12-14T05:39:05;12.02;;;7.63;;
4694;SDS011;2361;49.540;8.390;2023-12-14T05:41:27;12.25;;;7.30;;
4694;SDS011;2361;49.540;8.390;2023-12-14T05:43:49;9.65;;;7.10;;
4694;SDS011;2361;49.540;8.390;2023-12-14T05:46:19;12.27;;;7.30;;
4694;SDS011;2361;49.540;8.390;2023-12-14T05:48:43;13.57;;;7.30;;
4694;SDS011;2361;49.540;8.390;2023-12-14T05:51:04;10.95;;;6.97;;
4694;SDS011;2361;49.540;8.390;2023-12-14T05:53:26;11.77;;;7.22;;
4694;SDS011;2361;49.540;8.390;2023-12-14T05:55:48;11.80;;;7.40;;
4694;SDS011;2361;49.540;8.390;2023-12-14T05:58:10;12.30;;;7.40;;
4694;SDS011;2361;49.540;8.390;2023-12-14T06:00:32;10.63;;;6.60;;
4694;SDS011;2361;49.540;8.390;2023-12-14T06:02:56;10.77;;;6.75;;
4694;SDS011;2361;49.540;8.390;2023-12-14T06:05:19;11.80;;;7.10;;
4694;SDS011;2361;49.540;8.390;2023-12-14T06:07:41;8.10;;;5.88;;
4694;SDS011;2361;49.540;8.390;2023-12-14T06:10:03;10.40;;;6.85;;
4694;SDS011;2361;49.540;8.390;2023-12-14T06:12:27;12.10;;;7.10;;
4694;SDS011;2361;49.540;8.390;2023-12-14T06:14:49;10.90;;;6.70;;
4694;SDS011;2361;49.540;8.390;2023-12-14T06:17:11;10.38;;;6.45;;
4694;SDS011;2361;49.540;8.390;2023-12-14T06:19:33;10.15;;;6.72;;
4694;SDS011;2361;49.540;8.390;2023-12-14T06:21:55;11.63;;;6.78;;
4694;SDS011;2361;49.540;8.390;2023-12-14T06:24:17;11.20;;;7.13;;
4694;SDS011;2361;49.540;8.390;2023-12-14T06:26:42;10.68;;;6.72;;
4694;SDS011;2361;49.540;8.390;2023-12-14T06:29:05;8.77;;;6.20;;
4694;SDS011;2361;49.540;8.390;2023-12-14T06:31:27;10.45;;;6.53;;
4694;SDS011;2361;49.540;8.390;2023-12-14T06:33:49;11.00;;;6.40;;
4694;SDS011;2361;49.540;8.390;2023-12-14T06:36:11;10.95;;;6.28;;
4694;SDS011;2361;49.540;8.390;2023-12-14T06:38:33;9.52;;;6.03;;
4694;SDS011;2361;49.540;8.390;2023-12-14T06:40:55;9.90;;;6.65;;
4694;SDS011;2361;49.540;8.390;2023-12-14T06:43:17;10.55;;;6.57;;
4694;SDS011;2361;49.540;8.390;2023-12-14T06:45:39;10.18;;;6.10;;
4694;SDS011;2361;49.540;8.390;2023-12-14T06:48:01;9.25;;;5.70;;
4694;SDS011;2361;49.540;8.390;2023-12-14T06:50:24;9.52;;;6.40;;
4694;SDS011;2361;49.540;8.390;2023-12-14T06:52:46;10.50;;;6.90;;
4694;SDS011;2361;49.540;8.390;2023-12-14T06:55:08;10.95;;;6.90;;
4694;SDS011;2361;49.540;8.390;2023-12-14T06:57:30;10.80;;;6.80;;
4694;SDS011;2361;49.540;8.390;2023-12-14T06:59:52;11.20;;;7.22;;
4694;SDS011;2361;49.540;8.390;2023-12-14T07:02:14;12.57;;;6.97;;
4694;SDS011;2361;49.540;8.390;2023-12-14T07:04:36;10.57;;;6.68;;
4694;SDS011;2361;49.540;8.390;2023-12-14T07:06:58;10.35;;;6.65;;
4694;SDS011;2361;49.540;8.390;2023-12-14T07:09:20;10.70;;;7.18;;
4694;SDS011;2361;49.540;8.390;2023-12-14T07:11:42;12.13;;;7.30;;
4694;SDS011;2361;49.540;8.390;2023-12-14T07:14:04;10.77;;;7.10;;
4694;SDS011;2361;49.540;8.390;2023-12-14T07:16:26;11.57;;;6.82;;
4694;SDS011;2361;49.540;8.390;2023-12-14T07:18:48;11.45;;;7.20;;
4694;SDS011;2361;49.540;8.390;2023-12-14T07:21:10;14.80;;;7.60;;
4694;SDS011;2361;49.540;8.390;2023-12-14T07:23:35;13.75;;;7.25;;
4694;SDS011;2361;49.540;8.390;2023-12-14T07:25:58;13.13;;;7.78;;
4694;SDS011;2361;49.540;8.390;2023-12-14T07:28:26;15.25;;;7.60;;
4694;SDS011;2361;49.540;8.390;2023-12-14T07:30:48;11.98;;;7.50;;
4694;SDS011;2361;49.540;8.390;2023-12-14T07:33:10;12.63;;;7.30;;
4694;SDS011;2361;49.540;8.390;2023-12-14T07:35:37;13.35;;;7.70;;
4694;SDS011;2361;49.540;8.390;2023-12-14T07:37:59;14.60;;;7.80;;
4694;SDS011;2361;49.540;8.390;2023-12-14T07:40:21;11.82;;;7.35;;
4694;SDS011;2361;49.540;8.390;2023-12-14T07:42:43;14.02;;;7.63;;
4694;SDS011;2361;49.540;8.390;2023-12-14T07:45:05;13.80;;;8.02;;
4694;SDS011;2361;49.540;8.390;2023-12-14T07:47:29;12.55;;;8.02;;
4694;SDS011;2361;49.540;8.390;2023-12-14T07:49:51;13.50;;;7.57;;
4694;SDS011;2361;49.540;8.390;2023-12-14T07:52:15;11.40;;;7.50;;
4694;SDS011;2361;49.540;8.390;2023-12-14T07:54:37;12.38;;;7.53;;
4694;SDS011;2361;49.540;8.390;2023-12-14T07:56:59;10.93;;;6.95;;
4694;SDS011;2361;49.540;8.390;2023-12-14T07:59:21;13.57;;;7.10;;
4694;SDS011;2361;49.540;8.390;2023-12-14T08:01:44;10.13;;;6.93;;
4694;SDS011;2361;49.540;8.390;2023-12-14T08:04:06;14.05;;;7.68;;
4694;SDS011;2361;49.540;8.390;2023-12-14T08:06:28;12.40;;;7.30;;
4694;SDS011;2361;49.540;8.390;2023-12-14T08:08:50;11.65;;;7.28;;
4694;SDS011;2361;49.540;8.390;2023-12-14T08:11:12;13.27;;;7.65;;
4694;SDS011;2361;49.540;8.390;2023-12-14T08:13:34;12.48;;;7.68;;
4694;SDS011;2361;49.540;8.390;2023-12-14T08:15:57;12.10;;;6.90;;
4694;SDS011;2361;49.540;8.390;2023-12-14T08:18:20;12.25;;;6.80;;
4694;SDS011;2361;49.540;8.390;2023-12-14T08:20:42;10.32;;;7.00;;
4694;SDS011;2361;49.540;8.390;2023-12-14T08:23:04;11.95;;;7.43;;
4694;SDS011;2361;49.540;8.390;2023-12-14T08:25:26;8.98;;;6.20;;
4694;SDS011;2361;49.540;8.390;2023-12-14T08:27:48;12.33;;;7.10;;
4694;SDS011;2361;49.540;8.390;2023-12-14T08:30:11;11.57;;;6.70;;
4694;SDS011;2361;49.540;8.390;2023-12-14T08:32:34;10.95;;;6.50;;
4694;SDS011;2361;49.540;8.390;2023-12-14T08:34:56;12.73;;;6.93;;
4694;SDS011;2361;49.540;8.390;2023-12-14T08:37:18;11.47;;;6.97;;
4694;SDS011;2361;49.540;8.390;2023-12-14T08:39:40;11.50;;;6.72;;
4694;SDS011;2361;49.540;8.390;2023-12-14T08:42:03;10.20;;;6.50;;
4694;SDS011;2361;49.540;8.390;2023-12-14T08:44:25;11.38;;;6.80;;
4694;SDS011;2361;49.540;8.390;2023-12-14T08:46:47;11.10;;;6.80;;
4694;SDS011;2361;49.540;8.390;2023-12-14T08:49:10;10.50;;;6.70;;
4694;SDS011;2361;49.540;8.390;2023-12-14T08:51:34;12.13;;;6.63;;
4694;SDS011;2361;49.540;8.390;2023-12-14T08:53:55;12.98;;;7.22;;
4694;SDS011;2361;49.540;8.390;2023-12-14T08:56:17;12.73;;;7.68;;
4694;SDS011;2361;49.540;8.390;2023-12-14T08:58:39;12.40;;;7.18;;
4694;SDS011;2361;49.540;8.390;2023-12-14T09:01:01;11.13;;;7.60;;
4694;SDS011;2361;49.540;8.390;2023-12-14T09:03:24;14.27;;;8.03;;
4694;SDS011;2361;49.540;8.390;2023-12-14T09:05:47;12.98;;;7.95;;
4694;SDS011;2361;49.540;8.390;2023-12-14T09:08:10;10.98;;;7.10;;
4694;SDS011;2361;49.540;8.390;2023-12-14T09:10:32;13.47;;;7.80;;
4694;SDS011;2361;49.540;8.390;2023-12-14T09:12:54;12.95;;;7.72;;
4694;SDS011;2361;49.540;8.390;2023-12-14T09:15:16;13.13;;;7.85;;
4694;SDS011;2361;49.540;8.390;2023-12-14T09:17:38;11.05;;;7.25;;
4694;SDS011;2361;49.540;8.390;2023-12-14T09:20:01;14.55;;;7.47;;
4694;SDS011;2361;49.540;8.390;2023-12-14T09:22:26;10.57;;;6.90;;
4694;SDS011;2361;49.540;8.390;2023-12-14T09:24:48;13.45;;;7.38;;
4694;SDS011;2361;49.540;8.390;2023-12-14T09:27:10;11.80;;;7.43;;
4694;SDS011;2361;49.540;8.390;2023-12-14T09:29:32;11.75;;;7.20;;
4694;SDS011;2361;49.540;8.390;2023-12-14T09:31:54;14.40;;;8.60;;
4694;SDS011;2361;49.540;8.390;2023-12-14T09:34:16;12.55;;;8.50;;
4694;SDS011;2361;49.540;8.390;2023-12-14T09:36:39;13.48;;;8.40;;
4694;SDS011;2361;49.540;8.390;2023-12-14T09:39:01;12.82;;;7.07;;
4694;SDS011;2361;49.540;8.390;2023-12-14T09:41:23;10.20;;;6.47;;
4694;SDS011;2361;49.540;8.390;2023-12-14T09:43:45;10.50;;;7.20;;
4694;SDS011;2361;49.540;8.390;2023-12-14T09:46:07;9.07;;;6.40;;
4694;SDS011;2361;49.540;8.390;2023-12-14T09:48:30;10.18;;;6.65;;
4694;SDS011;2361;49.540;8.390;2023-12-14T09:50:53;11.55;;;6.40;;
4694;SDS011;2361;49.540;8.390;2023-12-14T09:53:15;15.32;;;6.05;;
4694;SDS011;2361;49.540;8.390;2023-12-14T09:55:37;11.13;;;6.20;;
4694;SDS011;2361;49.540;8.390;2023-12-14T09:57:59;11.00;;;5.70;;
4694;SDS011;2361;49.540;8.390;2023-12-14T10:00:32;8.57;;;5.15;;
4694;SDS011;2361;49.540;8.390;2023-12-14T10:05:50;8.35;;;5.30;;
4694;SDS011;2361;49.540;8.390;2023-12-14T10:08:12;8.43;;;5.13;;
4694;SDS011;2361;49.540;8.390;2023-12-14T10:10:34;8.88;;;5.30;;
4694;SDS011;2361;49.540;8.390;2023-12-14T10:12:56;9.10;;;5.47;;
4694;SDS011;2361;49.540;8.390;2023-12-14T10:15:18;7.32;;;5.30;;
4694;SDS011;2361;49.540;8.390;2023-12-14T10:17:40;7.93;;;5.13;;
4694;SDS011;2361;49.540;8.390;2023-12-14T10:20:02;10.55;;;5.32;;
4694;SDS011;2361;49.540;8.390;2023-12-14T10:22:29;9.18;;;5.60;;
4694;SDS011;2361;49.540;8.390;2023-12-14T10:24:53;6.22;;;4.90;;
4694;SDS011;2361;49.540;8.390;2023-12-14T10:27:16;7.90;;;5.30;;
4694;SDS011;2361;49.540;8.390;2023-12-14T10:29:38;11.18;;;5.50;;
4694;SDS011;2361;49.540;8.390;2023-12-14T10:32:03;7.60;;;5.25;;
4694;SDS011;2361;49.540;8.390;2023-12-14T10:34:27;7.90;;;5.70;;
4694;SDS011;2361;49.540;8.390;2023-12-14T10:36:49;8.77;;;5.68;;
4694;SDS011;2361;49.540;8.390;2023-12-14T10:39:13;6.65;;;5.10;;
4694;SDS011;2361;49.540;8.390;2023-12-14T10:41:39;7.95;;;5.20;;
4694;SDS011;2361;49.540;8.390;2023-12-14T10:44:01;6.93;;;4.97;;
4694;SDS011;2361;49.540;8.390;2023-12-14T10:46:46;10.57;;;6.13;;
4694;SDS011;2361;49.540;8.390;2023-12-14T10:49:10;6.40;;;5.00;;
4694;SDS011;2361;49.540;8.390;2023-12-14T10:51:32;9.35;;;5.25;;
4694;SDS011;2361;49.540;8.390;2023-12-14T10:53:54;7.18;;;4.95;;
4694;SDS011;2361;49.540;8.390;2023-12-14T10:56:18;7.28;;;5.00;;
4694;SDS011;2361;49.540;8.390;2023-12-14T10:58:48;7.78;;;4.88;;
4694;SDS011;2361;49.540;8.390;2023-12-14T11:01:18;6.35;;;4.85;;
4694;SDS011;2361;49.540;8.390;2023-12-14T11:03:43;8.55;;;4.50;;
4694;SDS011;2361;49.540;8.390;2023-12-14T11:06:15;6.90;;;4.60;;
4694;SDS011;2361;49.540;8.390;2023-12-14T11:08:56;6.25;;;4.50;;
4694;SDS011;2361;49.540;8.390;2023-12-14T11:11:29;7.95;;;4.50;;
4694;SDS011;2361;49.540;8.390;2023-12-14T11:13:53;7.07;;;4.95;;
4694;SDS011;2361;49.540;8.390;2023-12-14T11:16:15;5.60;;;4.40;;
4694;SDS011;2361;49.540;8.390;2023-12-14T11:18:37;8.47;;;5.00;;
4694;SDS011;2361;49.540;8.390;2023-12-14T11:20:59;6.60;;;4.60;;
4694;SDS011;2361;49.540;8.390;2023-12-14T11:25:54;7.97;;;4.95;;
4694;SDS011;2361;49.540;8.390;2023-12-14T11:28:26;10.02;;;5.00;;
4694;SDS011;2361;49.540;8.390;2023-12-14T11:30:50;6.70;;;4.72;;
4694;SDS011;2361;49.540;8.390;2023-12-14T11:33:16;6.82;;;5.07;;
4694;SDS011;2361;49.540;8.390;2023-12-14T11:35:41;8.48;;;5.18;;
4694;SDS011;2361;49.540;8.390;2023-12-14T11:38:03;7.13;;;4.85;;
4694;SDS011;2361;49.540;8.390;2023-12-14T11:40:31;9.18;;;5.10;;
4694;SDS011;2361;49.540;8.390;2023-12-14T11:42:59;7.40;;;4.88;;
4694;SDS011;2361;49.540;8.390;2023-12-14T11:45:22;9.10;;;5.40;;
4694;SDS011;2361;49.540;8.390;2023-12-14T11:47:44;8.57;;;5.45;;
4694;SDS011;2361;49.540;8.390;2023-12-14T11:50:06;9.80;;;5.90;;
4694;SDS011;2361;49.540;8.390;2023-12-14T11:52:28;10.20;;;5.60;;
4694;SDS011;2361;49.540;8.390;2023-12-14T11:54:50;7.43;;;4.95;;
4694;SDS011;2361;49.540;8.390;2023-12-14T11:57:14;6.87;;;5.07;;
4694;SDS011;2361;49.540;8.390;2023-12-14T11:59:37;6.72;;;4.70;;
4694;SDS011;2361;49.540;8.390;2023-12-14T12:02:00;8.13;;;5.00;;
4694;SDS011;2361;49.540;8.390;2023-12-14T12:04:23;10.00;;;5.00;;
4694;SDS011;2361;49.540;8.390;2023-12-14T12:06:46;7.30;;;5.30;;
4694;SDS011;2361;49.540;8.390;2023-12-14T12:09:10;7.57;;;5.82;;
4694;SDS011;2361;49.540;8.390;2023-12-14T12:11:33;9.35;;;5.60;;
4694;SDS011;2361;49.540;8.390;2023-12-14T12:13:55;7.00;;;5.25;;
4694;SDS011;2361;49.540;8.390;2023-12-14T12:16:19;7.95;;;5.40;;
4694;SDS011;2361;49.540;8.390;2023-12-14T12:18:41;8.30;;;5.53;;
4694;SDS011;2361;49.540;8.390;2023-12-14T12:21:03;6.60;;;4.85;;
4694;SDS011;2361;49.540;8.390;2023-12-14T12:23:27;10.18;;;5.63;;
4694;SDS011;2361;49.540;8.390;2023-12-14T12:25:49;7.70;;;5.37;;
4694;SDS011;2361;49.540;8.390;2023-12-14T12:28:11;8.55;;;5.47;;
4694;SDS011;2361;49.540;8.390;2023-12-14T12:30:33;9.15;;;5.88;;
4694;SDS011;2361;49.540;8.390;2023-12-14T12:32:58;8.60;;;5.73;;
4694;SDS011;2361;49.540;8.390;2023-12-14T12:35:21;7.95;;;4.93;;
4694;SDS011;2361;49.540;8.390;2023-12-14T12:37:45;8.70;;;5.60;;
4694;SDS011;2361;49.540;8.390;2023-12-14T12:40:07;8.43;;;5.40;;
4694;SDS011;2361;49.540;8.390;2023-12-14T12:42:29;9.07;;;5.70;;
4694;SDS011;2361;49.540;8.390;2023-12-14T12:44:52;7.80;;;5.32;;
4694;SDS011;2361;49.540;8.390;2023-12-14T12:47:14;7.80;;;5.80;;
4694;SDS011;2361;49.540;8.390;2023-12-14T12:49:36;7.75;;;5.65;;
4694;SDS011;2361;49.540;8.390;2023-12-14T12:51:58;8.40;;;5.78;;
4694;SDS011;2361;49.540;8.390;2023-12-14T12:54:20;8.30;;;5.63;;
4694;SDS011;2361;49.540;8.390;2023-12-14T12:56:42;8.50;;;5.30;;
4694;SDS011;2361;49.540;8.390;2023-12-14T12:59:04;8.00;;;5.03;;
4694;SDS011;2361;49.540;8.390;2023-12-14T13:01:30;8.40;;;5.63;;
4694;SDS011;2361;49.540;8.390;2023-12-14T13:03:55;7.00;;;5.00;;
4694;SDS011;2361;49.540;8.390;2023-12-14T13:06:20;8.10;;;5.60;;
4694;SDS011;2361;49.540;8.390;2023-12-14T13:08:43;8.20;;;5.32;;
4694;SDS011;2361;49.540;8.390;2023-12-14T13:11:05;7.60;;;5.00;;
4694;SDS011;2361;49.540;8.390;2023-12-14T13:13:27;7.05;;;4.45;;
4694;SDS011;2361;49.540;8.390;2023-12-14T13:15:49;6.97;;;4.65;;
4694;SDS011;2361;49.540;8.390;2023-12-14T13:18:11;8.57;;;4.95;;
4694;SDS011;2361;49.540;8.390;2023-12-14T13:20:33;6.28;;;4.72;;
4694;SDS011;2361;49.540;8.390;2023-12-14T13:22:54;7.60;;;5.10;;
4694;SDS011;2361;49.540;8.390;2023-12-14T13:25:16;7.97;;;5.22;;
4694;SDS011;2361;49.540;8.390;2023-12-14T13:27:38;6.70;;;4.68;;
4694;SDS011;2361;49.540;8.390;2023-12-14T13:30:02;6.80;;;5.30;;
4694;SDS011;2361;49.540;8.390;2023-12-14T13:32:25;7.25;;;5.03;;
4694;SDS011;2361;49.540;8.390;2023-12-14T13:34:47;6.10;;;4.80;;
4694;SDS011;2361;49.540;8.390;2023-12-14T13:37:10;6.03;;;4.70;;
4694;SDS011;2361;49.540;8.390;2023-12-14T13:39:32;6.55;;;4.88;;
4694;SDS011;2361;49.540;8.390;2023-12-14T13:41:56;8.27;;;5.05;;
4694;SDS011;2361;49.540;8.390;2023-12-14T13:44:17;7.10;;;4.93;;
4694;SDS011;2361;49.540;8.390;2023-12-14T13:46:40;6.47;;;4.75;;
4694;SDS011;2361;49.540;8.390;2023-12-14T13:49:02;6.22;;;4.80;;
4694;SDS011;2361;49.540;8.390;2023-12-14T13:51:23;6.18;;;4.60;;
4694;SDS011;2361;49.540;8.390;2023-12-14T13:53:45;3.92;;;3.50;;
4694;SDS011;2361;49.540;8.390;2023-12-14T13:56:07;5.20;;;4.05;;
4694;SDS011;2361;49.540;8.390;2023-12-14T13:58:31;5.93;;;4.40;;
4694;SDS011;2361;49.540;8.390;2023-12-14T14:00:55;5.57;;;3.88;;
4694;SDS011;2361;49.540;8.390;2023-12-14T14:03:18;6.32;;;4.45;;
4694;SDS011;2361;49.540;8.390;2023-12-14T14:05:40;6.30;;;4.20;;
4694;SDS011;2361;49.540;8.390;2023-12-14T14:08:05;7.00;;;4.47;;
4694;SDS011;2361;49.540;8.390;2023-12-14T14:10:31;5.50;;;3.70;;
4694;SDS011;2361;49.540;8.390;2023-12-14T14:12:53;4.87;;;3.90;;
4694;SDS011;2361;49.540;8.390;2023-12-14T14:15:16;4.72;;;4.18;;
4694;SDS011;2361;49.540;8.390;2023-12-14T14:17:38;5.40;;;4.30;;
4694;SDS011;2361;49.540;8.390;2023-12-14T14:20:00;10.82;;;5.40;;
4694;SDS011;2361;49.540;8.390;2023-12-14T14:22:23;6.00;;;3.95;;
4694;SDS011;2361;49.540;8.390;2023-12-14T14:24:45;5.05;;;3.80;;
4694;SDS011;2361;49.540;8.390;2023-12-14T14:27:07;4.10;;;3.70;;
4694;SDS011;2361;49.540;8.390;2023-12-14T14:29:29;3.50;;;3.20;;
4694;SDS011;2361;49.540;8.390;2023-12-14T14:31:51;3.85;;;3.45;;
4694;SDS011;2361;49.540;8.390;2023-12-14T14:34:13;2.97;;;2.75;;
4694;SDS011;2361;49.540;8.390;2023-12-14T14:36:36;4.15;;;3.20;;
4694;SDS011;2361;49.540;8.390;2023-12-14T14:38:58;3.20;;;2.90;;
4694;SDS011;2361;49.540;8.390;2023-12-14T14:41:20;2.97;;;2.70;;
4694;SDS011;2361;49.540;8.390;2023-12-14T14:43:42;3.67;;;2.77;;
4694;SDS011;2361;49.540;8.390;2023-12-14T14:46:04;2.80;;;2.60;;